Sand Point, Michigan
Current Conditions -  °F | °C
As of 10:39 AM on Saturday 25 Oct 2014 (Local Time) from KBAX Reporting Station
Haze Haze  
Wind Chill: 54°   Ceiling: 1000
Heat Index: 54°   Visibility: 4mi
Dew Point: 52°   Wind: 14mph
Humidity: 94%   Direction: 250°WSW
Pressure: 29.73"   Gusts: 20mph
Location:  43.8338°N, 83.2671°W
Report Text: KBAX 251439Z AUTO 25012G17KT 4SM BR OVC010 12/11 A2973 RMK AO2 T01210112
Loading
Personal Weather Stations






























Interactive Weather Map
Tropical Storm Tracking
New forecast layout! Learn more

10-Day Weather Forecast

Advertisements
Track Severe Weather on mobile